createdAt,value
2019-05-18T00:01:03.226Z,67.00
2019-05-18T00:06:07.905Z,64.07
2019-05-18T00:11:14.505Z,68.12
2019-05-18T00:16:21.169Z,62.48
2019-05-18T00:21:28.064Z,62.93
2019-05-18T00:26:36.188Z,63.65
2019-05-18T00:31:49.397Z,62.93
2019-05-18T00:41:58.144Z,66.53
2019-05-18T00:47:03.907Z,62.80
2019-05-18T00:52:08.417Z,64.25
2019-05-18T00:57:16.327Z,58.78
2019-05-18T01:02:21.895Z,64.60
2019-05-18T01:07:26.553Z,65.25
2019-05-18T01:12:38.350Z,62.65
2019-05-18T01:17:56.409Z,60.17
2019-05-18T01:22:50.945Z,58.92
2019-05-18T01:27:55.602Z,61.40
2019-05-18T01:33:03.701Z,60.63
2019-05-18T01:38:11.940Z,58.52
2019-05-18T01:43:17.243Z,61.60
2019-05-18T01:48:23.284Z,56.48
2019-05-18T01:53:29.519Z,60.12
2019-05-18T01:58:34.209Z,57.67
2019-05-18T02:03:39.279Z,56.25
2019-05-18T02:09:04.999Z,61.77
2019-05-18T02:14:09.694Z,56.63
2019-05-18T02:19:15.518Z,56.55
2019-05-18T02:24:22.089Z,62.03
2019-05-18T02:29:29.309Z,60.10
2019-05-18T02:34:33.854Z,59.53
2019-05-18T02:39:38.498Z,61.08
2019-05-18T02:44:44.807Z,58.33
2019-05-18T02:49:49.347Z,60.38
2019-05-18T02:55:01.143Z,54.67
2019-05-18T03:00:10.814Z,57.98
2019-05-18T03:05:15.800Z,63.65
2019-05-18T03:10:22.111Z,65.45
2019-05-18T03:15:26.826Z,71.90
2019-05-18T03:20:31.406Z,70.62
2019-05-18T03:25:37.240Z,72.92
2019-05-18T03:30:42.456Z,66.30
2019-05-18T03:35:47.757Z,65.40
2019-05-18T03:40:52.330Z,63.38
2019-05-18T03:45:56.873Z,65.50
2019-05-18T03:51:01.609Z,68.52
2019-05-18T03:56:07.945Z,71.33
2019-05-18T04:01:12.519Z,72.12
2019-05-18T04:06:17.131Z,70.72
2019-05-18T04:11:23.480Z,64.60
2019-05-18T04:16:28.940Z,66.42
2019-05-18T04:21:33.481Z,63.55
2019-05-18T04:26:38.490Z,66.82
2019-05-18T04:31:43.566Z,72.30
2019-05-18T04:36:49.885Z,71.07
2019-05-18T04:42:00.345Z,70.78
2019-05-18T04:47:07.430Z,71.28
2019-05-18T04:52:19.759Z,66.97
2019-05-18T04:57:33.295Z,72.43
2019-05-18T05:02:40.782Z,72.30
2019-05-18T05:07:49.141Z,70.65
2019-05-18T05:12:55.973Z,76.67
2019-05-18T05:18:01.586Z,76.90
2019-05-18T05:23:08.826Z,78.52
2019-05-18T05:28:26.254Z,86.95
2019-05-18T05:33:30.894Z,78.52
2019-05-18T05:38:35.691Z,86.82
2019-05-18T05:43:40.169Z,85.07
2019-05-18T05:48:47.000Z,84.70
2019-05-18T05:53:51.444Z,85.50
2019-05-18T05:58:55.844Z,83.07
2019-05-18T06:04:00.226Z,79.35
2019-05-18T06:09:06.543Z,78.87
2019-05-18T06:14:10.945Z,79.72
2019-05-18T06:19:15.344Z,82.20
2019-05-18T06:24:19.903Z,80.17
2019-05-18T06:29:24.289Z,81.30
2019-05-18T06:34:28.862Z,83.15
2019-05-18T06:39:33.341Z,80.47
2019-05-18T06:44:37.738Z,84.47
2019-05-18T06:49:42.196Z,80.83
2019-05-18T06:54:46.614Z,74.80
2019-05-18T06:59:51.199Z,80.60
2019-05-18T07:04:55.615Z,79.20
2019-05-18T07:10:00.031Z,77.55
2019-05-18T07:15:07.023Z,72.90
2019-05-18T07:20:13.723Z,71.95
2019-05-18T07:25:18.276Z,76.57
2019-05-18T07:30:22.655Z,71.55
2019-05-18T07:35:27.062Z,80.28
2019-05-18T07:40:31.518Z,75.08
2019-05-18T07:45:35.966Z,75.70
2019-05-18T07:50:40.368Z,75.42
2019-05-18T07:55:44.769Z,73.72
2019-05-18T08:00:49.156Z,70.10
2019-05-18T08:05:53.681Z,69.10
2019-05-18T08:10:58.164Z,67.78
2019-05-18T08:16:02.629Z,68.00
2019-05-18T08:21:07.014Z,65.75
2019-05-18T08:26:11.451Z,65.62
2019-05-18T08:31:17.380Z,63.10
2019-05-18T08:36:21.816Z,67.37
2019-05-18T08:41:26.239Z,65.12
2019-05-18T08:46:30.748Z,64.17
2019-05-18T08:51:35.152Z,68.47
2019-05-18T08:56:39.680Z,63.85
2019-05-18T09:01:44.070Z,61.42
2019-05-18T09:06:48.621Z,64.22
2019-05-18T09:11:52.987Z,58.73
2019-05-18T09:16:57.384Z,56.63
2019-05-18T09:22:01.777Z,57.70
2019-05-18T09:27:06.199Z,55.88
2019-05-18T09:32:10.580Z,52.60
2019-05-18T09:37:14.988Z,58.83
2019-05-18T09:42:19.463Z,55.92
2019-05-18T09:47:23.861Z,54.67
2019-05-18T09:52:44.142Z,54.38
2019-05-18T09:57:34.368Z,53.05
2019-05-18T10:02:38.837Z,49.40
2019-05-18T10:07:43.344Z,53.95
2019-05-18T10:12:47.772Z,73.25
2019-05-18T10:17:52.168Z,47.90
2019-05-18T10:23:11.893Z,46.68
2019-05-18T10:28:02.699Z,46.98
2019-05-18T10:33:07.178Z,45.83
2019-05-18T10:38:11.714Z,48.08
2019-05-18T10:43:16.130Z,44.27
2019-05-18T10:48:20.561Z,43.75
2019-05-18T10:53:28.616Z,44.38
2019-05-18T10:58:41.483Z,47.50
2019-05-18T11:03:45.891Z,41.08
2019-05-18T11:08:50.288Z,36.38
2019-05-18T11:13:56.979Z,38.20
2019-05-18T11:19:01.541Z,35.28
2019-05-18T11:24:06.676Z,32.48
2019-05-18T11:29:11.085Z,29.87
2019-05-18T11:34:15.479Z,28.12
2019-05-18T11:39:19.932Z,31.57
2019-05-18T11:44:24.467Z,26.68
2019-05-18T11:49:29.300Z,25.77
2019-05-18T11:54:34.246Z,25.23
2019-05-18T11:59:38.666Z,27.45
2019-05-18T12:04:56.778Z,31.02
2019-05-18T12:10:01.195Z,30.68
2019-05-18T12:15:12.307Z,29.98
2019-05-18T12:20:17.253Z,30.15
2019-05-18T12:25:21.876Z,30.70
2019-05-18T12:30:26.969Z,27.52
2019-05-18T12:35:31.459Z,31.10
2019-05-18T12:40:35.832Z,29.98
2019-05-18T12:45:41.921Z,27.50
2019-05-18T12:50:46.337Z,30.52
2019-05-18T12:55:50.809Z,25.62
2019-05-18T13:00:55.201Z,28.40
2019-05-18T13:05:59.584Z,31.15
2019-05-18T13:11:04.064Z,28.32
2019-05-18T13:16:10.062Z,29.57
2019-05-18T13:21:14.547Z,29.87
2019-05-18T13:26:18.991Z,26.73
2019-05-18T13:31:23.402Z,27.85
2019-05-18T13:36:27.792Z,26.50
2019-05-18T13:41:32.211Z,25.10
2019-05-18T13:46:38.131Z,24.43
2019-05-18T13:51:42.556Z,24.10
2019-05-18T13:56:46.939Z,21.60
2019-05-18T14:01:51.328Z,22.32
2019-05-18T14:06:55.885Z,20.43
2019-05-18T14:12:00.295Z,23.30
2019-05-18T14:17:04.695Z,23.60
2019-05-18T14:22:09.086Z,23.75
2019-05-18T14:27:13.488Z,25.08
2019-05-18T14:32:17.884Z,24.50
2019-05-18T14:37:22.489Z,25.43
2019-05-18T14:42:26.862Z,26.42
2019-05-18T14:47:31.362Z,24.95
2019-05-18T14:52:35.994Z,25.48
2019-05-18T14:57:40.510Z,26.93
2019-05-18T15:02:44.969Z,26.33
2019-05-18T15:07:49.511Z,24.82
2019-05-18T15:12:53.927Z,26.75
2019-05-18T15:17:58.376Z,26.87
2019-05-18T15:23:02.875Z,29.67
2019-05-18T15:28:07.348Z,24.55
2019-05-18T15:33:11.756Z,28.20
2019-05-18T15:38:16.162Z,28.05
2019-05-18T15:43:20.640Z,29.20
2019-05-18T15:48:25.143Z,30.50
2019-05-18T15:53:29.720Z,29.98
2019-05-18T15:58:34.111Z,32.25
2019-05-18T16:03:38.500Z,30.40
2019-05-18T16:08:42.887Z,32.13
2019-05-18T16:13:47.316Z,28.83
2019-05-18T16:18:51.809Z,29.95
2019-05-18T16:23:56.213Z,29.72
2019-05-18T16:29:00.881Z,31.35
2019-05-18T16:34:08.108Z,31.23
2019-05-18T16:39:12.661Z,37.03
2019-05-18T16:44:17.160Z,33.05
2019-05-18T16:49:21.579Z,34.15
2019-05-18T16:54:26.376Z,37.30
2019-05-18T16:59:30.769Z,34.53
2019-05-18T17:04:35.219Z,34.23
2019-05-18T17:09:39.860Z,32.13
2019-05-18T17:14:44.258Z,33.23
2019-05-18T17:19:48.672Z,31.77
2019-05-18T17:24:53.127Z,33.40
2019-05-18T17:29:57.565Z,30.52
2019-05-18T17:35:02.034Z,32.73
2019-05-18T17:40:06.957Z,35.05
2019-05-18T17:45:12.401Z,31.87
2019-05-18T17:50:17.723Z,30.15
2019-05-18T17:55:24.024Z,32.03
2019-05-18T18:00:28.571Z,30.92
2019-05-18T18:05:32.999Z,43.80
2019-05-18T18:10:38.971Z,52.78
2019-05-18T18:15:43.408Z,63.68
2019-05-18T18:20:48.218Z,64.62
2019-05-18T18:25:52.616Z,69.95
2019-05-18T18:30:57.184Z,61.95
2019-05-18T18:36:01.582Z,66.95
2019-05-18T18:41:05.973Z,64.97
2019-05-18T18:46:10.356Z,60.35
2019-05-18T18:51:14.809Z,61.65
2019-05-18T18:56:19.189Z,76.87
2019-05-18T19:01:25.202Z,78.37
2019-05-18T19:06:29.758Z,83.15
2019-05-18T19:11:34.158Z,84.95
2019-05-18T19:16:38.875Z,81.55
2019-05-18T19:21:43.296Z,86.22
2019-05-18T19:26:47.703Z,83.10
2019-05-18T19:31:52.224Z,87.27
2019-05-18T19:36:58.837Z,86.65
2019-05-18T19:42:03.284Z,84.40
2019-05-18T19:47:07.726Z,86.22
2019-05-18T19:52:12.344Z,82.35
2019-05-18T19:57:16.722Z,84.20
2019-05-18T20:02:21.204Z,82.92
2019-05-18T20:07:25.589Z,89.50
2019-05-18T20:13:26.843Z,87.65
2019-05-18T20:17:47.619Z,90.25
2019-05-18T20:22:58.608Z,85.57
2019-05-18T20:28:22.885Z,93.00
2019-05-18T20:33:24.330Z,90.95
2019-05-18T20:38:40.570Z,97.47
2019-05-18T20:45:07.129Z,97.10
2019-05-18T20:49:52.529Z,104.30
2019-05-18T20:54:49.863Z,104.23
2019-05-18T21:01:01.535Z,102.10
2019-05-18T21:11:05.770Z,105.83
2019-05-18T21:16:13.668Z,104.78
2019-05-18T21:21:25.433Z,103.38
2019-05-18T21:26:38.934Z,106.37
2019-05-18T21:31:46.087Z,108.40
2019-05-18T21:36:54.959Z,104.65
2019-05-18T21:42:06.815Z,104.75
2019-05-18T21:47:13.455Z,104.90
2019-05-18T21:52:21.752Z,107.90
2019-05-18T21:57:27.988Z,102.92
2019-05-18T22:02:34.171Z,106.07
2019-05-18T22:07:38.856Z,106.58
2019-05-18T22:12:45.151Z,99.55
2019-05-18T22:18:05.004Z,101.05
2019-05-18T22:23:09.729Z,101.00
2019-05-18T22:28:18.647Z,101.92
2019-05-18T22:33:28.951Z,103.60
2019-05-18T22:38:29.697Z,103.83
2019-05-18T22:43:34.417Z,103.47
2019-05-18T22:48:41.610Z,104.53
2019-05-18T22:53:50.922Z,102.07
2019-05-18T22:58:57.374Z,100.15
2019-05-18T23:04:03.742Z,101.75
2019-05-18T23:09:11.583Z,106.25
2019-05-18T23:14:19.220Z,107.43
2019-05-18T23:19:25.459Z,100.30
2019-05-18T23:24:30.055Z,105.17
2019-05-18T23:29:38.630Z,105.65
2019-05-18T23:34:43.199Z,107.03
2019-05-18T23:39:49.414Z,109.97
2019-05-18T23:44:56.766Z,110.52
2019-05-18T23:50:01.394Z,108.00
2019-05-18T23:55:07.658Z,116.45
